This is the latest recevied weather packets stored in our database for station/object WL7BUN-9. If no packets are shown the sender has not sent any weather packets the latest 10 day(s).
| Time | Temp. | Humidity | Pressure | Rain* | Wind** | Luminosity | Snow |
|---|---|---|---|---|---|---|---|
| 1787602018 | 15.56° C | 70% | 991.1 hPa | 0 mm | - | 1264 W/m² | - |
| 1787601419 | 15° C | 71% | 991.2 hPa | 0 mm | - | 1383 W/m² | - |
| 1787600818 | 15° C | 69% | 991 hPa | 0 mm | - | 1448 W/m² | - |
| 1787600218 | 14.44° C | 71% | 991.2 hPa | 0 mm | - | 1277 W/m² | - |
| 1787599618 | 13.89° C | 72% | 991.3 hPa | 0 mm | - | 1226 W/m² | - |
| 1787599018 | 13.89° C | 72% | 991.2 hPa | 0 mm | - | 1117 W/m² | - |
| 1787598418 | 14.44° C | 73% | 991.2 hPa | 0 mm | - | 1230 W/m² | - |
| 1787597818 | 14.44° C | 72% | 991.1 hPa | 0 mm | - | 1212 W/m² | - |
| 1787597218 | 14.44° C | 71% | 991.2 hPa | 0 mm | - | 1233 W/m² | - |
| 1787596618 | 13.89° C | 72% | 991.2 hPa | 0 mm | - | 1237 W/m² | - |
| 1787596019 | 13.89° C | 71% | 991.2 hPa | 0 mm | - | 1171 W/m² | - |
| 1787595418 | 13.33° C | 73% | 991.3 hPa | 0 mm | - | 1123 W/m² | - |
| 1787594818 | 13.33° C | 73% | 991.6 hPa | 0 mm | - | 1901 W/m² | - |
| 1787594218 | 13.89° C | 73% | 991.6 hPa | 0 mm | - | 1821 W/m² | - |
| 1787593618 | 13.89° C | 72% | 991.7 hPa | 0 mm | - | 1911 W/m² | - |
| 1787593018 | 13.33° C | 74% | 991.6 hPa | 0 mm | - | 1130 W/m² | - |
| 1787592418 | 13.33° C | 79% | 991.7 hPa | 0 mm | - | 1120 W/m² | - |
| 1787591818 | 11.67° C | 87% | 991.7 hPa | 0 mm | - | 1100 W/m² | - |
| 1787591218 | 11.11° C | 89% | 991.7 hPa | 0 mm | - | 1786 W/m² | - |
| 1787590618 | 11.11° C | 87% | 991.9 hPa | 0 mm | - | 1678 W/m² | - |
| 1787590018 | 11.67° C | 84% | 991.6 hPa | 0 mm | - | 1733 W/m² | - |
| 1787589418 | 11.67° C | 83% | 991.7 hPa | 0 mm | - | 1884 W/m² | - |
| 1787588818 | 10° C | 89% | 991.5 hPa | 0 mm | - | 1757 W/m² | - |
| 1787588220 | 9.44° C | 90% | 991.8 hPa | 0 mm | - | 1808 W/m² | - |
| 1787587618 | 9.44° C | 89% | 992 hPa | 0 mm | - | 1686 W/m² | - |
* Rain latest hour (hover to see other rain measurements)
** Current wind speed in m/s (hover to see current wind gust speed)